createdAt,value
2023-12-07T00:00:00.730Z,4.50
2023-12-07T00:02:27.865Z,4.50
2023-12-07T00:04:54.608Z,4.50
2023-12-07T00:07:21.315Z,4.50
2023-12-07T00:09:48.378Z,4.50
2023-12-07T00:12:15.955Z,4.40
2023-12-07T00:14:42.761Z,4.50
2023-12-07T00:17:09.446Z,4.50
2023-12-07T00:19:36.403Z,4.40
2023-12-07T00:22:03.516Z,4.50
2023-12-07T00:24:30.808Z,4.50
2023-12-07T00:26:57.484Z,4.50
2023-12-07T00:29:24.139Z,4.50
2023-12-07T00:31:50.958Z,4.50
2023-12-07T00:34:20.120Z,4.50
2023-12-07T00:36:47.795Z,4.60
2023-12-07T00:39:14.454Z,4.60
2023-12-07T00:41:41.117Z,4.50
2023-12-07T00:44:07.827Z,4.60
2023-12-07T00:46:34.563Z,4.60
2023-12-07T00:49:01.729Z,4.60
2023-12-07T00:51:28.509Z,4.60
2023-12-07T00:53:55.247Z,4.50
2023-12-07T00:56:22.079Z,4.50
2023-12-07T00:58:49.347Z,4.60
2023-12-07T01:01:16.067Z,4.60
2023-12-07T01:03:42.755Z,4.50
2023-12-07T01:06:11.036Z,4.50
2023-12-07T01:08:38.362Z,4.40
2023-12-07T01:11:06.322Z,4.40
2023-12-07T01:13:33.105Z,4.40
2023-12-07T01:15:59.825Z,4.50
2023-12-07T01:18:26.581Z,4.50
2023-12-07T01:20:53.383Z,4.50
2023-12-07T01:23:20.043Z,4.60
2023-12-07T01:25:47.061Z,4.60
2023-12-07T01:28:13.828Z,4.60
2023-12-07T01:30:40.480Z,4.70
2023-12-07T01:33:07.545Z,4.70
2023-12-07T01:35:34.242Z,4.70
2023-12-07T01:38:00.872Z,4.70
2023-12-07T01:40:27.652Z,4.80
2023-12-07T01:42:54.652Z,4.80
2023-12-07T01:45:21.817Z,4.80
2023-12-07T01:47:52.151Z,4.70
2023-12-07T01:50:24.581Z,4.60
2023-12-07T01:52:56.832Z,4.60
2023-12-07T01:55:24.467Z,4.50
2023-12-07T01:57:51.355Z,4.30
2023-12-07T02:00:18.334Z,4.30
2023-12-07T02:02:47.734Z,4.20
2023-12-07T02:05:15.490Z,4.30
2023-12-07T02:07:43.547Z,4.20
2023-12-07T02:10:11.925Z,4.30
2023-12-07T02:12:38.828Z,4.50
2023-12-07T02:15:06.241Z,4.50
2023-12-07T02:18:00.827Z,4.40
2023-12-07T02:20:52.801Z,4.40
2023-12-07T02:23:32.253Z,4.30
2023-12-07T02:26:09.746Z,4.40
2023-12-07T02:28:36.491Z,4.40
2023-12-07T02:31:04.111Z,4.40
2023-12-07T02:33:30.987Z,4.40
2023-12-07T02:35:58.310Z,4.40
2023-12-07T02:38:27.744Z,4.40
2023-12-07T02:40:56.359Z,4.50
2023-12-07T02:43:24.061Z,4.50
2023-12-07T02:45:50.956Z,4.50
2023-12-07T02:48:19.000Z,4.50
2023-12-07T02:50:45.959Z,4.50
2023-12-07T02:53:12.717Z,4.50
2023-12-07T02:55:39.555Z,4.50
2023-12-07T02:58:07.965Z,4.40
2023-12-07T03:00:34.785Z,4.40
2023-12-07T03:03:01.644Z,4.40
2023-12-07T03:05:28.349Z,4.50
2023-12-07T03:07:55.063Z,4.50
2023-12-07T03:10:21.781Z,4.50
2023-12-07T03:12:48.505Z,4.50
2023-12-07T03:15:15.243Z,4.40
2023-12-07T03:17:42.013Z,4.40
2023-12-07T03:20:09.829Z,4.50
2023-12-07T03:22:36.891Z,4.50
2023-12-07T03:25:03.920Z,4.50
2023-12-07T03:27:30.679Z,4.50
2023-12-07T03:29:57.520Z,4.50
2023-12-07T03:32:24.421Z,4.50
2023-12-07T03:34:51.399Z,4.60
2023-12-07T03:37:18.196Z,4.60
2023-12-07T03:39:44.941Z,4.60
2023-12-07T03:42:48.609Z,4.60
2023-12-07T03:44:58.273Z,4.60
2023-12-07T03:47:25.034Z,4.60
2023-12-07T03:49:51.846Z,4.60
2023-12-07T03:52:18.887Z,4.70
2023-12-07T03:54:45.558Z,4.70
2023-12-07T03:57:12.231Z,4.70
2023-12-07T03:59:38.908Z,4.60
2023-12-07T04:02:05.689Z,4.60
2023-12-07T04:04:32.460Z,4.70
2023-12-07T04:06:59.336Z,4.60
2023-12-07T04:09:26.015Z,4.60
2023-12-07T04:11:53.260Z,4.70
2023-12-07T04:14:20.439Z,4.70
2023-12-07T04:16:47.112Z,4.60
2023-12-07T04:19:13.906Z,4.60
2023-12-07T04:21:40.691Z,4.60
2023-12-07T04:24:07.464Z,4.70
2023-12-07T04:26:34.136Z,4.70
2023-12-07T04:29:00.824Z,4.70
2023-12-07T04:31:27.525Z,4.70
2023-12-07T04:33:54.345Z,4.70
2023-12-07T04:36:21.084Z,4.60
2023-12-07T04:38:47.770Z,4.70
2023-12-07T04:41:14.560Z,4.70
2023-12-07T04:43:41.357Z,4.60
2023-12-07T04:46:08.179Z,4.60
2023-12-07T04:48:34.948Z,4.60
2023-12-07T04:51:01.644Z,4.70
2023-12-07T04:53:28.737Z,4.70
2023-12-07T04:55:55.410Z,4.60
2023-12-07T04:58:22.210Z,4.50
2023-12-07T05:00:49.038Z,4.50
2023-12-07T05:03:15.860Z,4.50
2023-12-07T05:05:42.749Z,4.50
2023-12-07T05:08:09.488Z,4.40
2023-12-07T05:10:36.340Z,4.40
2023-12-07T05:13:03.154Z,4.40
2023-12-07T05:15:29.890Z,4.40
2023-12-07T05:17:56.677Z,4.40
2023-12-07T05:20:25.209Z,4.40
2023-12-07T05:22:51.907Z,4.40
2023-12-07T05:25:18.678Z,4.40
2023-12-07T05:27:45.953Z,4.30
2023-12-07T05:30:14.026Z,4.30
2023-12-07T05:32:40.731Z,4.30
2023-12-07T05:35:08.170Z,4.30
2023-12-07T05:37:34.958Z,4.20
2023-12-07T05:40:02.211Z,4.20
2023-12-07T05:42:28.908Z,4.10
2023-12-07T05:44:55.703Z,4.10
2023-12-07T05:47:22.433Z,4.00
2023-12-07T05:49:49.170Z,3.90
2023-12-07T05:52:15.919Z,3.80
2023-12-07T05:54:44.282Z,3.80
2023-12-07T05:57:10.971Z,3.80
2023-12-07T05:59:39.717Z,3.70
2023-12-07T06:02:07.632Z,3.70
2023-12-07T06:04:34.765Z,3.60
2023-12-07T06:07:01.877Z,3.50
2023-12-07T06:09:29.970Z,3.40
2023-12-07T06:11:56.982Z,3.30
2023-12-07T06:14:26.786Z,3.20
2023-12-07T06:16:53.456Z,3.30
2023-12-07T06:19:20.291Z,3.30
2023-12-07T06:21:47.085Z,3.20
2023-12-07T06:24:15.355Z,3.10
2023-12-07T06:26:42.100Z,3.10
2023-12-07T06:29:09.148Z,3.10
2023-12-07T06:31:35.898Z,3.10
2023-12-07T06:34:03.908Z,3.10
2023-12-07T06:36:31.208Z,3.00
2023-12-07T06:38:59.029Z,2.90
2023-12-07T06:41:25.903Z,3.00
2023-12-07T06:43:52.975Z,2.90
2023-12-07T06:46:19.661Z,2.90
2023-12-07T06:48:46.536Z,3.00
2023-12-07T06:51:15.427Z,3.00
2023-12-07T06:53:42.675Z,3.00
2023-12-07T06:56:10.097Z,3.00
2023-12-07T06:58:36.900Z,2.90
2023-12-07T07:01:03.881Z,2.90
2023-12-07T07:03:30.756Z,2.80
2023-12-07T07:05:57.574Z,2.80
2023-12-07T07:08:24.403Z,2.80
2023-12-07T07:10:51.165Z,2.90
2023-12-07T07:13:20.547Z,2.80
2023-12-07T07:15:48.897Z,2.90
2023-12-07T07:18:15.763Z,2.90
2023-12-07T07:20:42.638Z,2.90
2023-12-07T07:23:09.646Z,2.90
2023-12-07T07:25:36.468Z,2.80
2023-12-07T07:28:04.411Z,2.70
2023-12-07T07:30:31.620Z,2.70
2023-12-07T07:32:58.378Z,2.70
2023-12-07T07:35:25.157Z,2.80
2023-12-07T07:37:51.867Z,2.80
2023-12-07T07:40:18.789Z,2.80
2023-12-07T07:42:46.561Z,2.70
2023-12-07T07:45:13.460Z,2.70
2023-12-07T07:47:40.924Z,2.80
2023-12-07T07:50:07.971Z,2.70
2023-12-07T07:52:35.866Z,2.60
2023-12-07T07:55:04.798Z,2.70
2023-12-07T07:57:31.877Z,2.60
2023-12-07T07:59:59.083Z,2.50
2023-12-07T08:02:26.345Z,2.60
2023-12-07T08:04:53.110Z,2.60
2023-12-07T08:07:19.899Z,2.60
2023-12-07T08:09:46.835Z,2.70
2023-12-07T08:12:13.616Z,2.60
2023-12-07T08:14:40.910Z,2.60
2023-12-07T08:17:07.591Z,2.60
2023-12-07T08:19:34.280Z,2.60
2023-12-07T08:22:01.222Z,2.70
2023-12-07T08:24:27.950Z,2.70
2023-12-07T08:26:54.636Z,2.70
2023-12-07T08:29:21.329Z,2.60
2023-12-07T08:31:48.377Z,2.60
2023-12-07T08:34:15.383Z,2.70
2023-12-07T08:36:42.126Z,2.70
2023-12-07T08:39:10.772Z,2.70
2023-12-07T08:41:37.872Z,2.60
2023-12-07T08:44:06.516Z,2.70
2023-12-07T08:46:33.489Z,2.70
2023-12-07T08:49:00.347Z,2.70
2023-12-07T08:51:27.120Z,2.70
2023-12-07T08:53:54.877Z,2.70
2023-12-07T08:56:22.845Z,2.60
2023-12-07T08:58:49.687Z,2.50
2023-12-07T09:01:25.797Z,2.50
2023-12-07T09:03:59.110Z,2.60
2023-12-07T09:06:26.247Z,2.60
2023-12-07T09:08:53.884Z,2.70
2023-12-07T09:11:21.021Z,2.70
2023-12-07T09:13:48.469Z,2.80
2023-12-07T09:16:15.759Z,2.80
2023-12-07T09:18:43.934Z,2.80
2023-12-07T09:21:10.648Z,2.90
2023-12-07T09:23:38.435Z,3.00
2023-12-07T09:26:06.099Z,3.20
2023-12-07T09:28:34.212Z,3.30
2023-12-07T09:31:01.472Z,3.30
2023-12-07T09:33:28.340Z,3.40
2023-12-07T09:35:55.071Z,3.40
2023-12-07T09:38:21.757Z,3.40
2023-12-07T09:40:53.237Z,5.00
2023-12-07T09:43:20.212Z,4.50
2023-12-07T09:45:47.931Z,4.00
2023-12-07T09:48:14.704Z,4.00
2023-12-07T09:50:41.524Z,3.80
2023-12-07T09:53:09.381Z,3.60
2023-12-07T09:55:37.962Z,3.50
2023-12-07T09:58:07.589Z,3.60
2023-12-07T10:00:35.720Z,3.40
2023-12-07T10:03:02.702Z,3.20
2023-12-07T10:05:29.747Z,3.10
2023-12-07T10:07:56.762Z,3.10
2023-12-07T10:10:23.612Z,3.10
2023-12-07T10:12:59.570Z,3.00
2023-12-07T10:15:26.619Z,3.00
2023-12-07T10:17:58.501Z,3.00
2023-12-07T10:20:30.350Z,2.90
2023-12-07T10:23:09.173Z,2.90
2023-12-07T10:25:43.503Z,2.90
2023-12-07T10:28:13.012Z,2.90
2023-12-07T10:30:45.266Z,2.90
2023-12-07T10:33:14.502Z,2.90
2023-12-07T10:35:42.389Z,2.90
2023-12-07T10:38:13.807Z,2.80
2023-12-07T10:40:40.879Z,2.80
2023-12-07T10:43:08.814Z,2.80
2023-12-07T10:45:38.897Z,2.90
2023-12-07T10:48:10.694Z,2.90
2023-12-07T10:50:51.390Z,2.90
2023-12-07T10:53:41.223Z,2.90
2023-12-07T10:56:12.500Z,2.80
2023-12-07T10:58:41.244Z,2.80
2023-12-07T11:01:10.170Z,2.90
2023-12-07T11:03:38.128Z,2.90
2023-12-07T11:06:06.964Z,2.80
2023-12-07T11:08:53.401Z,2.70
2023-12-07T11:11:26.935Z,2.70
2023-12-07T11:13:59.132Z,2.90
2023-12-07T11:16:40.711Z,3.00
2023-12-07T11:19:44.476Z,3.00
2023-12-07T11:22:15.717Z,3.10
2023-12-07T11:25:02.184Z,3.10
2023-12-07T11:27:33.129Z,3.10
2023-12-07T11:30:03.750Z,3.20
2023-12-07T11:32:30.927Z,3.10
2023-12-07T11:35:05.003Z,3.10
2023-12-07T11:38:07.027Z,3.10
2023-12-07T11:40:42.783Z,3.20
2023-12-07T11:43:18.860Z,3.30
2023-12-07T11:45:50.022Z,3.30
2023-12-07T11:48:19.361Z,3.20
2023-12-07T11:50:59.505Z,3.40
2023-12-07T11:53:31.550Z,5.40
2023-12-07T11:56:00.361Z,4.80
2023-12-07T11:58:27.924Z,4.30
2023-12-07T12:00:57.496Z,4.10
2023-12-07T12:03:25.444Z,4.10
2023-12-07T12:05:52.399Z,4.10
2023-12-07T12:08:19.969Z,4.10
2023-12-07T12:10:47.679Z,4.10
2023-12-07T12:13:14.629Z,4.10
2023-12-07T12:15:41.630Z,4.20
2023-12-07T12:18:09.541Z,4.20
2023-12-07T12:20:36.857Z,4.30
2023-12-07T12:23:03.566Z,4.40
2023-12-07T12:25:32.205Z,4.50
2023-12-07T12:28:04.766Z,4.50
2023-12-07T12:30:33.276Z,4.40
2023-12-07T12:33:03.496Z,4.50
2023-12-07T12:35:30.386Z,4.60
2023-12-07T12:37:57.175Z,4.60
2023-12-07T12:40:25.043Z,4.50
2023-12-07T12:42:56.503Z,4.60
2023-12-07T12:45:24.432Z,4.60
2023-12-07T12:47:51.412Z,4.60
2023-12-07T12:50:41.073Z,4.60
2023-12-07T12:53:10.880Z,4.60
2023-12-07T12:55:39.181Z,4.60
2023-12-07T12:58:08.862Z,4.60
2023-12-07T13:00:40.119Z,4.60
2023-12-07T13:03:07.285Z,5.20
2023-12-07T13:05:35.474Z,4.90
2023-12-07T13:08:12.576Z,4.80
2023-12-07T13:10:42.388Z,4.60
2023-12-07T13:13:09.341Z,4.50
2023-12-07T13:15:36.145Z,4.70
2023-12-07T13:18:06.520Z,4.60
2023-12-07T13:20:46.118Z,4.50
2023-12-07T13:23:21.851Z,4.60
2023-12-07T13:25:48.630Z,4.50
2023-12-07T13:28:15.480Z,4.50
2023-12-07T13:30:42.180Z,4.50
2023-12-07T13:33:21.012Z,4.50
2023-12-07T13:35:53.525Z,4.50
2023-12-07T13:38:21.585Z,4.40
2023-12-07T13:40:50.293Z,4.40
2023-12-07T13:43:18.476Z,4.40
2023-12-07T13:45:46.003Z,4.50
2023-12-07T13:48:13.886Z,4.50
2023-12-07T13:50:41.299Z,4.60
2023-12-07T13:53:12.306Z,4.60
2023-12-07T13:55:40.674Z,4.60
2023-12-07T13:58:13.719Z,4.60
2023-12-07T14:00:40.764Z,4.60
2023-12-07T14:03:07.666Z,4.60
2023-12-07T14:05:34.970Z,4.50
2023-12-07T14:08:01.757Z,4.60
2023-12-07T14:10:30.740Z,4.70
2023-12-07T14:12:59.715Z,4.50
2023-12-07T14:15:38.875Z,4.50
2023-12-07T14:18:10.013Z,4.50
2023-12-07T14:20:50.982Z,4.50
2023-12-07T14:23:24.068Z,4.40
2023-12-07T14:25:52.407Z,5.00
2023-12-07T14:28:19.860Z,5.10
2023-12-07T14:30:46.621Z,4.80
2023-12-07T14:33:13.483Z,4.60
2023-12-07T14:35:40.415Z,4.50
2023-12-07T14:38:07.159Z,4.50
2023-12-07T14:40:35.475Z,4.40
2023-12-07T14:43:02.201Z,4.40
2023-12-07T14:45:29.196Z,4.40
2023-12-07T14:47:56.099Z,4.30
2023-12-07T14:50:22.943Z,4.40
2023-12-07T14:52:49.741Z,4.30
2023-12-07T14:55:16.838Z,4.20
2023-12-07T14:57:43.956Z,4.20
2023-12-07T15:00:11.136Z,4.20
2023-12-07T15:02:38.026Z,4.10
2023-12-07T15:05:05.568Z,4.00
2023-12-07T15:07:32.691Z,3.90
2023-12-07T15:09:59.372Z,3.90
2023-12-07T15:12:29.831Z,3.90
2023-12-07T15:14:57.646Z,3.90
2023-12-07T15:17:24.521Z,3.80
2023-12-07T15:19:51.678Z,3.70
2023-12-07T15:22:18.631Z,3.70
2023-12-07T15:24:46.001Z,3.70
2023-12-07T15:27:12.706Z,3.70
2023-12-07T15:29:40.137Z,3.70
2023-12-07T15:32:08.393Z,3.70
2023-12-07T15:34:39.803Z,4.00
2023-12-07T15:37:12.620Z,3.80
2023-12-07T15:39:41.683Z,3.60
2023-12-07T15:42:10.457Z,3.60
2023-12-07T15:44:37.399Z,3.70
2023-12-07T15:47:04.460Z,3.60
2023-12-07T15:49:32.092Z,3.60
2023-12-07T15:52:01.083Z,3.50
2023-12-07T15:54:35.458Z,3.40
2023-12-07T15:57:07.811Z,3.30
2023-12-07T15:59:35.256Z,3.20
2023-12-07T16:02:02.180Z,3.20
2023-12-07T16:04:33.919Z,3.20
2023-12-07T16:07:06.495Z,3.20
2023-12-07T16:09:35.689Z,3.10
2023-12-07T16:12:02.877Z,3.10
2023-12-07T16:14:31.122Z,3.00
2023-12-07T16:17:00.147Z,3.00
2023-12-07T16:19:28.351Z,3.10
2023-12-07T16:21:55.314Z,3.00
2023-12-07T16:24:22.200Z,3.00
2023-12-07T16:26:50.763Z,3.00
2023-12-07T16:29:17.852Z,2.90
2023-12-07T16:31:48.387Z,2.90
2023-12-07T16:34:15.305Z,2.90
2023-12-07T16:36:42.084Z,2.90
2023-12-07T16:39:09.199Z,2.90
2023-12-07T16:41:41.542Z,2.80
2023-12-07T16:44:15.242Z,2.80
2023-12-07T16:46:45.475Z,2.80
2023-12-07T16:49:13.573Z,2.90
2023-12-07T16:51:40.798Z,2.80
2023-12-07T16:54:07.660Z,2.80
2023-12-07T16:56:34.544Z,2.70
2023-12-07T16:59:01.573Z,2.60
2023-12-07T17:01:28.256Z,2.70
2023-12-07T17:03:55.141Z,2.60
2023-12-07T17:06:22.050Z,2.70
2023-12-07T17:08:53.125Z,2.60
2023-12-07T17:11:24.214Z,2.50
2023-12-07T17:13:51.001Z,2.60
2023-12-07T17:16:17.690Z,2.50
2023-12-07T17:18:44.577Z,2.50
2023-12-07T17:21:11.583Z,2.40
2023-12-07T17:23:40.041Z,2.40
2023-12-07T17:26:06.769Z,2.40
2023-12-07T17:28:33.487Z,2.40
2023-12-07T17:31:00.198Z,2.40
2023-12-07T17:33:26.957Z,2.40
2023-12-07T17:35:53.714Z,2.40
2023-12-07T17:38:20.952Z,2.40
2023-12-07T17:40:49.328Z,2.40
2023-12-07T17:43:16.091Z,2.30
2023-12-07T17:45:42.748Z,2.40
2023-12-07T17:48:12.710Z,2.40
2023-12-07T17:50:42.815Z,2.40
2023-12-07T17:53:09.651Z,2.30
2023-12-07T17:55:36.320Z,2.30
2023-12-07T17:58:03.065Z,2.30
2023-12-07T18:00:29.746Z,2.40
2023-12-07T18:02:56.670Z,2.40
2023-12-07T18:05:23.575Z,2.30
2023-12-07T18:07:50.351Z,2.20
2023-12-07T18:10:17.226Z,2.20
2023-12-07T18:12:43.906Z,2.20
2023-12-07T18:15:11.044Z,2.10
2023-12-07T18:17:37.882Z,2.10
2023-12-07T18:20:05.222Z,2.10
2023-12-07T18:22:31.971Z,2.20
2023-12-07T18:24:59.431Z,2.10
2023-12-07T18:27:26.389Z,2.20
2023-12-07T18:29:53.449Z,2.20
2023-12-07T18:32:20.965Z,2.20
2023-12-07T18:34:47.758Z,2.20
2023-12-07T18:37:14.515Z,2.10
2023-12-07T18:39:41.214Z,2.00
2023-12-07T18:42:09.415Z,2.00
2023-12-07T18:44:36.426Z,2.00
2023-12-07T18:47:03.256Z,2.00
2023-12-07T18:49:30.124Z,2.00
2023-12-07T18:51:57.539Z,2.00
2023-12-07T18:54:25.143Z,1.90
2023-12-07T18:56:51.922Z,1.90
2023-12-07T18:59:18.624Z,1.90
2023-12-07T19:01:45.994Z,1.90
2023-12-07T19:04:12.711Z,2.00
2023-12-07T19:06:40.613Z,2.00
2023-12-07T19:09:09.485Z,1.90
2023-12-07T19:11:36.328Z,1.90
2023-12-07T19:14:03.050Z,2.00
2023-12-07T19:16:29.774Z,2.00
2023-12-07T19:18:56.563Z,2.00
2023-12-07T19:21:23.434Z,2.00
2023-12-07T19:23:50.839Z,2.00
2023-12-07T19:26:20.435Z,2.00
2023-12-07T19:28:47.775Z,1.90
2023-12-07T19:31:14.667Z,1.90
2023-12-07T19:33:41.517Z,2.00
2023-12-07T19:36:08.630Z,2.00
2023-12-07T19:38:35.831Z,2.00
2023-12-07T19:41:04.214Z,2.00
2023-12-07T19:43:32.418Z,2.00
2023-12-07T19:45:59.303Z,2.00
2023-12-07T19:48:26.334Z,2.00
2023-12-07T19:50:53.217Z,2.00
2023-12-07T19:53:21.111Z,2.00
2023-12-07T19:55:47.789Z,2.00
2023-12-07T19:58:14.491Z,2.00
2023-12-07T20:00:41.794Z,1.90
2023-12-07T20:03:09.003Z,2.00
2023-12-07T20:05:36.099Z,2.00
2023-12-07T20:08:06.368Z,2.10
2023-12-07T20:10:34.815Z,2.10
2023-12-07T20:13:01.697Z,2.00
2023-12-07T20:15:28.395Z,2.00
2023-12-07T20:17:55.347Z,2.00
2023-12-07T20:20:22.186Z,2.00
2023-12-07T20:22:49.023Z,2.10
2023-12-07T20:25:20.787Z,2.00
2023-12-07T20:27:47.678Z,2.00
2023-12-07T20:30:14.768Z,2.10
2023-12-07T20:32:41.639Z,2.10
2023-12-07T20:35:09.521Z,2.10
2023-12-07T20:37:36.448Z,2.10
2023-12-07T20:40:03.818Z,2.00
2023-12-07T20:42:30.525Z,2.10
2023-12-07T20:44:57.198Z,2.10
2023-12-07T20:47:24.067Z,2.10
2023-12-07T20:49:51.032Z,2.10
2023-12-07T20:52:18.228Z,2.20
2023-12-07T20:54:47.061Z,2.20
2023-12-07T20:57:14.828Z,2.20
2023-12-07T20:59:41.576Z,2.30
2023-12-07T21:02:08.255Z,2.30
2023-12-07T21:04:35.052Z,2.30
2023-12-07T21:07:01.730Z,2.30
2023-12-07T21:09:28.460Z,2.30
2023-12-07T21:11:55.374Z,2.30
2023-12-07T21:14:22.454Z,2.30
2023-12-07T21:16:49.128Z,2.30
2023-12-07T21:19:16.029Z,2.30
2023-12-07T21:21:42.813Z,2.30
2023-12-07T21:24:10.499Z,2.30
2023-12-07T21:26:37.228Z,2.30
2023-12-07T21:29:03.897Z,2.30
2023-12-07T21:31:30.729Z,2.30
2023-12-07T21:33:57.537Z,2.30
2023-12-07T21:36:24.342Z,2.30
2023-12-07T21:38:51.132Z,2.30
2023-12-07T21:41:17.859Z,2.40
2023-12-07T21:43:44.836Z,2.40
2023-12-07T21:46:11.662Z,2.40
2023-12-07T21:48:38.515Z,2.40
2023-12-07T21:51:06.980Z,2.40
2023-12-07T21:53:33.941Z,2.40
2023-12-07T21:56:00.718Z,2.40
2023-12-07T21:58:27.409Z,2.50
2023-12-07T22:00:54.164Z,2.50
2023-12-07T22:03:21.017Z,2.50
2023-12-07T22:05:49.733Z,2.50
2023-12-07T22:08:16.544Z,2.60
2023-12-07T22:10:43.274Z,2.60
2023-12-07T22:13:10.010Z,2.60
2023-12-07T22:15:36.759Z,2.70
2023-12-07T22:18:04.039Z,2.70
2023-12-07T22:20:30.935Z,2.70
2023-12-07T22:22:57.747Z,2.70
2023-12-07T22:25:24.444Z,2.70
2023-12-07T22:27:51.145Z,2.80
2023-12-07T22:30:18.761Z,2.80
2023-12-07T22:32:46.706Z,2.80
2023-12-07T22:35:13.925Z,2.80
2023-12-07T22:37:40.738Z,2.80
2023-12-07T22:40:08.030Z,2.90
2023-12-07T22:42:34.781Z,2.90
2023-12-07T22:45:01.745Z,3.00
2023-12-07T22:47:29.716Z,3.00
2023-12-07T22:49:57.152Z,2.90
2023-12-07T22:52:23.929Z,2.90
2023-12-07T22:54:50.600Z,3.00
2023-12-07T22:57:17.711Z,3.00
2023-12-07T22:59:44.457Z,2.90
2023-12-07T23:02:11.212Z,2.90
2023-12-07T23:04:37.889Z,2.90
2023-12-07T23:07:04.713Z,2.90
2023-12-07T23:09:31.593Z,3.00
2023-12-07T23:11:58.279Z,3.00
2023-12-07T23:14:25.076Z,3.00
2023-12-07T23:16:51.738Z,3.00
2023-12-07T23:19:19.020Z,3.00
2023-12-07T23:21:46.547Z,3.10
2023-12-07T23:24:13.298Z,3.10
2023-12-07T23:26:44.257Z,3.10
2023-12-07T23:29:11.852Z,3.10
2023-12-07T23:31:38.692Z,3.10
2023-12-07T23:34:05.783Z,3.20
2023-12-07T23:36:32.639Z,3.20
2023-12-07T23:38:59.433Z,3.10
2023-12-07T23:41:26.219Z,3.10
2023-12-07T23:43:52.946Z,3.10
2023-12-07T23:46:20.364Z,3.10
2023-12-07T23:48:47.485Z,3.10
2023-12-07T23:51:15.772Z,3.20
2023-12-07T23:53:42.598Z,3.20
2023-12-07T23:56:09.703Z,3.10
2023-12-07T23:58:44.965Z,3.20
